sensor_id;sensor_type;location;lat;lon;timestamp;pressure;altitude;pressure_sealevel;temperature;humidity
70921;BME280;58572;48.110;19.838;2023-05-22T00:01:07;97699.09;;;15.09;63.97
70921;BME280;58572;48.110;19.838;2023-05-22T00:03:34;97815.72;;;15.98;60.51
70921;BME280;58572;48.110;19.838;2023-05-22T00:06:02;97746.00;;;15.64;63.17
70921;BME280;58572;48.110;19.838;2023-05-22T00:08:30;97811.25;;;16.27;62.94
70921;BME280;58572;48.110;19.838;2023-05-22T00:10:57;97810.41;;;15.92;63.43
70921;BME280;58572;48.110;19.838;2023-05-22T00:13:24;97807.84;;;16.39;63.52
70921;BME280;58572;48.110;19.838;2023-05-22T00:15:53;97806.72;;;16.57;61.30
70921;BME280;58572;48.110;19.838;2023-05-22T00:18:21;97777.97;;;15.94;63.63
70921;BME280;58572;48.110;19.838;2023-05-22T00:20:48;97809.94;;;16.59;62.82
70921;BME280;58572;48.110;19.838;2023-05-22T00:23:15;97809.94;;;16.08;63.73
70921;BME280;58572;48.110;19.838;2023-05-22T00:25:42;97822.97;;;15.85;64.91
70921;BME280;58572;48.110;19.838;2023-05-22T00:28:10;97808.16;;;15.94;61.38
70921;BME280;58572;48.110;19.838;2023-05-22T00:30:37;97805.09;;;16.56;61.62
70921;BME280;58572;48.110;19.838;2023-05-22T00:33:06;97810.22;;;15.80;63.20
70921;BME280;58572;48.110;19.838;2023-05-22T00:35:34;97808.78;;;15.91;60.99
70921;BME280;58572;48.110;19.838;2023-05-22T00:38:02;97816.81;;;15.71;60.84
70921;BME280;58572;48.110;19.838;2023-05-22T00:40:31;97801.00;;;15.68;61.34
70921;BME280;58572;48.110;19.838;2023-05-22T00:42:58;97742.00;;;15.87;61.48
70921;BME280;58572;48.110;19.838;2023-05-22T00:45:32;97805.09;;;16.56;60.73
70921;BME280;58572;48.110;19.838;2023-05-22T00:47:59;97736.91;;;15.55;62.82
70921;BME280;58572;48.110;19.838;2023-05-22T00:50:28;97801.19;;;15.88;60.73
70921;BME280;58572;48.110;19.838;2023-05-22T00:52:55;97792.53;;;16.38;61.99
70921;BME280;58572;48.110;19.838;2023-05-22T00:55:22;97791.66;;;15.77;60.44
70921;BME280;58572;48.110;19.838;2023-05-22T00:57:50;97789.91;;;16.59;59.34
70921;BME280;58572;48.110;19.838;2023-05-22T01:00:18;97789.63;;;16.86;59.87
70921;BME280;58572;48.110;19.838;2023-05-22T01:02:45;97728.94;;;14.88;61.15
70921;BME280;58572;48.110;19.838;2023-05-22T01:05:13;97786.56;;;16.27;62.46
70921;BME280;58572;48.110;19.838;2023-05-22T01:07:44;97779.44;;;16.44;61.75
70921;BME280;58572;48.110;19.838;2023-05-22T01:10:12;97779.22;;;15.71;59.99
70921;BME280;58572;48.110;19.838;2023-05-22T01:12:47;97765.06;;;16.55;57.33
70921;BME280;58572;48.110;19.838;2023-05-22T01:15:25;97776.53;;;15.88;59.63
70921;BME280;58572;48.110;19.838;2023-05-22T01:18:01;97777.19;;;16.20;61.06
70921;BME280;58572;48.110;19.838;2023-05-22T01:20:39;97778.00;;;16.12;61.26
70921;BME280;58572;48.110;19.838;2023-05-22T01:26:46;97768.81;;;16.08;60.74
70921;BME280;58572;48.110;19.838;2023-05-22T01:29:41;97771.88;;;16.15;64.65
70921;BME280;58572;48.110;19.838;2023-05-22T01:32:15;97765.06;;;16.55;55.54
70921;BME280;58572;48.110;19.838;2023-05-22T01:34:44;97584.56;;;15.02;58.98
70921;BME280;58572;48.110;19.838;2023-05-22T01:37:13;97771.50;;;16.59;62.41
70921;BME280;58572;48.110;19.838;2023-05-22T01:39:42;97771.53;;;16.25;62.23
70921;BME280;58572;48.110;19.838;2023-05-22T01:42:10;97770.56;;;16.21;60.78
70921;BME280;58572;48.110;19.838;2023-05-22T01:44:37;97772.66;;;16.07;60.34
70921;BME280;58572;48.110;19.838;2023-05-22T01:47:05;97772.50;;;16.46;60.17
70921;BME280;58572;48.110;19.838;2023-05-22T01:49:35;97772.69;;;16.15;58.34
70921;BME280;58572;48.110;19.838;2023-05-22T01:52:09;97661.69;;;15.04;58.76
70921;BME280;58572;48.110;19.838;2023-05-22T01:54:42;97769.13;;;16.75;59.56
70921;BME280;58572;48.110;19.838;2023-05-22T01:57:16;97771.13;;;15.57;63.73
70921;BME280;58572;48.110;19.838;2023-05-22T01:59:48;97762.34;;;16.38;60.42
70921;BME280;58572;48.110;19.838;2023-05-22T02:02:20;97777.63;;;15.70;60.89
70921;BME280;58572;48.110;19.838;2023-05-22T02:04:55;97775.09;;;16.00;61.51
70921;BME280;58572;48.110;19.838;2023-05-22T02:07:25;97770.41;;;15.91;60.58
70921;BME280;58572;48.110;19.838;2023-05-22T02:09:54;97767.53;;;15.57;61.95
70921;BME280;58572;48.110;19.838;2023-05-22T02:12:23;97773.00;;;15.57;57.99
70921;BME280;58572;48.110;19.838;2023-05-22T02:14:51;97755.69;;;16.56;60.15
70921;BME280;58572;48.110;19.838;2023-05-22T02:17:18;97757.19;;;16.37;59.92
70921;BME280;58572;48.110;19.838;2023-05-22T02:19:46;97759.25;;;16.48;59.33
70921;BME280;58572;48.110;19.838;2023-05-22T02:22:15;97543.19;;;13.85;59.75
70921;BME280;58572;48.110;19.838;2023-05-22T02:24:45;97644.69;;;15.24;62.21
70921;BME280;58572;48.110;19.838;2023-05-22T02:27:13;97771.16;;;15.26;63.69
70921;BME280;58572;48.110;19.838;2023-05-22T02:29:41;97491.88;;;14.52;60.08
70921;BME280;58572;48.110;19.838;2023-05-22T02:32:08;97765.69;;;15.66;61.55
70921;BME280;58572;48.110;19.838;2023-05-22T02:34:35;97775.44;;;14.79;60.20
70921;BME280;58572;48.110;19.838;2023-05-22T02:37:03;97773.56;;;14.88;59.70
70921;BME280;58572;48.110;19.838;2023-05-22T02:39:32;97777.22;;;14.84;62.98
70921;BME280;58572;48.110;19.838;2023-05-22T02:41:59;97768.13;;;15.76;60.45
70921;BME280;58572;48.110;19.838;2023-05-22T02:44:26;97770.72;;;15.99;60.47
70921;BME280;58572;48.110;19.838;2023-05-22T02:46:54;97772.75;;;15.27;62.73
70921;BME280;58572;48.110;19.838;2023-05-22T02:49:21;97767.50;;;15.00;62.83
70921;BME280;58572;48.110;19.838;2023-05-22T02:51:48;97766.00;;;14.94;60.78
70921;BME280;58572;48.110;19.838;2023-05-22T02:54:15;97780.88;;;15.01;59.46
70921;BME280;58572;48.110;19.838;2023-05-22T02:56:44;97766.66;;;14.46;60.92
70921;BME280;58572;48.110;19.838;2023-05-22T02:59:11;97763.00;;;14.73;62.36
70921;BME280;58572;48.110;19.838;2023-05-22T03:01:39;97762.66;;;14.97;61.02
70921;BME280;58572;48.110;19.838;2023-05-22T03:04:06;97763.28;;;14.94;62.56
70921;BME280;58572;48.110;19.838;2023-05-22T03:06:33;97758.06;;;14.84;64.87
70921;BME280;58572;48.110;19.838;2023-05-22T03:09:01;97761.03;;;15.75;62.41
70921;BME280;58572;48.110;19.838;2023-05-22T03:11:29;97759.97;;;14.75;62.30
70921;BME280;58572;48.110;19.838;2023-05-22T03:13:57;97757.22;;;15.54;61.77
70921;BME280;58572;48.110;19.838;2023-05-22T03:16:24;97764.56;;;14.96;60.05
70921;BME280;58572;48.110;19.838;2023-05-22T03:19:06;97757.31;;;14.92;64.04
70921;BME280;58572;48.110;19.838;2023-05-22T03:21:33;97757.81;;;14.94;61.54
70921;BME280;58572;48.110;19.838;2023-05-22T03:24:01;97759.16;;;14.74;60.43
70921;BME280;58572;48.110;19.838;2023-05-22T03:26:28;97753.50;;;14.71;64.64
70921;BME280;58572;48.110;19.838;2023-05-22T03:28:55;97651.16;;;14.49;60.28
70921;BME280;58572;48.110;19.838;2023-05-22T03:31:26;97756.06;;;14.98;61.43
70921;BME280;58572;48.110;19.838;2023-05-22T03:33:55;97756.59;;;14.78;63.62
70921;BME280;58572;48.110;19.838;2023-05-22T03:36:23;97752.38;;;15.51;62.13
70921;BME280;58572;48.110;19.838;2023-05-22T03:38:50;97759.16;;;15.53;59.70
70921;BME280;58572;48.110;19.838;2023-05-22T03:41:18;97687.66;;;15.15;60.21
70921;BME280;58572;48.110;19.838;2023-05-22T03:43:45;97772.97;;;15.40;59.23
70921;BME280;58572;48.110;19.838;2023-05-22T03:46:12;97761.31;;;15.25;61.37
70921;BME280;58572;48.110;19.838;2023-05-22T03:48:41;97754.97;;;14.77;59.39
70921;BME280;58572;48.110;19.838;2023-05-22T03:51:08;97758.38;;;14.82;58.38
70921;BME280;58572;48.110;19.838;2023-05-22T03:53:35;97751.84;;;14.92;61.62
70921;BME280;58572;48.110;19.838;2023-05-22T03:56:02;97754.25;;;14.93;59.68
70921;BME280;58572;48.110;19.838;2023-05-22T03:58:30;97754.22;;;15.24;60.07
70921;BME280;58572;48.110;19.838;2023-05-22T04:00:57;97493.47;;;13.52;57.99
70921;BME280;58572;48.110;19.838;2023-05-22T04:03:25;97759.91;;;14.97;61.62
70921;BME280;58572;48.110;19.838;2023-05-22T04:05:54;97755.56;;;14.96;60.12
70921;BME280;58572;48.110;19.838;2023-05-22T04:08:23;97738.03;;;15.06;61.46
70921;BME280;58572;48.110;19.838;2023-05-22T04:10:50;97748.81;;;15.02;61.17
70921;BME280;58572;48.110;19.838;2023-05-22T04:13:18;97745.25;;;14.93;62.53
70921;BME280;58572;48.110;19.838;2023-05-22T04:15:46;97745.44;;;15.45;60.43
70921;BME280;58572;48.110;19.838;2023-05-22T04:18:14;97747.19;;;15.41;61.16
70921;BME280;58572;48.110;19.838;2023-05-22T04:20:41;97749.22;;;15.18;62.95
70921;BME280;58572;48.110;19.838;2023-05-22T04:23:13;97738.63;;;15.73;61.21
70921;BME280;58572;48.110;19.838;2023-05-22T04:25:40;97748.09;;;15.27;63.06
70921;BME280;58572;48.110;19.838;2023-05-22T04:28:07;97739.69;;;15.15;62.50
70921;BME280;58572;48.110;19.838;2023-05-22T04:30:35;97746.16;;;15.19;62.29
70921;BME280;58572;48.110;19.838;2023-05-22T04:33:04;97734.59;;;14.91;62.15
70921;BME280;58572;48.110;19.838;2023-05-22T04:35:31;97745.63;;;15.57;61.57
70921;BME280;58572;48.110;19.838;2023-05-22T04:37:58;97737.16;;;16.36;58.90
70921;BME280;58572;48.110;19.838;2023-05-22T04:40:28;97741.25;;;14.99;65.36
70921;BME280;58572;48.110;19.838;2023-05-22T04:42:58;97738.13;;;15.31;58.44
70921;BME280;58572;48.110;19.838;2023-05-22T04:45:26;97734.47;;;15.45;61.24
70921;BME280;58572;48.110;19.838;2023-05-22T04:47:54;97732.16;;;15.69;59.62
70921;BME280;58572;48.110;19.838;2023-05-22T04:50:21;97732.56;;;15.54;59.98
70921;BME280;58572;48.110;19.838;2023-05-22T04:52:49;97727.03;;;16.11;62.23
70921;BME280;58572;48.110;19.838;2023-05-22T04:55:17;97592.53;;;14.73;59.70
70921;BME280;58572;48.110;19.838;2023-05-22T04:57:48;97612.38;;;14.87;60.92
70921;BME280;58572;48.110;19.838;2023-05-22T05:00:18;97735.28;;;15.54;62.08
70921;BME280;58572;48.110;19.838;2023-05-22T05:02:50;97729.44;;;15.95;60.69
70921;BME280;58572;48.110;19.838;2023-05-22T05:05:17;97727.81;;;15.94;60.81
70921;BME280;58572;48.110;19.838;2023-05-22T05:07:46;97731.81;;;15.62;60.52
70921;BME280;58572;48.110;19.838;2023-05-22T05:10:16;97715.88;;;16.16;61.53
70921;BME280;58572;48.110;19.838;2023-05-22T05:12:44;97726.09;;;15.50;64.39
70921;BME280;58572;48.110;19.838;2023-05-22T05:15:12;97735.06;;;15.64;60.54
70921;BME280;58572;48.110;19.838;2023-05-22T05:17:40;97743.66;;;15.49;64.24
70921;BME280;58572;48.110;19.838;2023-05-22T05:20:07;97729.56;;;15.64;61.18
70921;BME280;58572;48.110;19.838;2023-05-22T05:22:35;97731.19;;;15.82;58.54
70921;BME280;58572;48.110;19.838;2023-05-22T05:25:02;97733.78;;;15.70;60.71
70921;BME280;58572;48.110;19.838;2023-05-22T05:27:30;97736.53;;;16.05;62.35
70921;BME280;58572;48.110;19.838;2023-05-22T05:29:57;97739.94;;;16.10;62.85
70921;BME280;58572;48.110;19.838;2023-05-22T05:32:26;97735.09;;;16.16;61.05
70921;BME280;58572;48.110;19.838;2023-05-22T05:34:53;97735.56;;;16.01;63.51
70921;BME280;58572;48.110;19.838;2023-05-22T05:37:21;97744.44;;;15.89;64.51
70921;BME280;58572;48.110;19.838;2023-05-22T05:39:48;97749.59;;;16.08;64.34
70921;BME280;58572;48.110;19.838;2023-05-22T05:42:15;97741.19;;;16.65;60.05
70921;BME280;58572;48.110;19.838;2023-05-22T05:44:43;97743.75;;;16.61;58.39
70921;BME280;58572;48.110;19.838;2023-05-22T05:47:10;97639.47;;;15.62;63.27
70921;BME280;58572;48.110;19.838;2023-05-22T05:49:39;97740.25;;;17.16;55.51
70921;BME280;58572;48.110;19.838;2023-05-22T05:52:06;97739.22;;;17.29;52.41
70921;BME280;58572;48.110;19.838;2023-05-22T05:54:33;97612.69;;;16.49;48.80
70921;BME280;58572;48.110;19.838;2023-05-22T05:57:01;97732.06;;;17.66;46.13
70921;BME280;58572;48.110;19.838;2023-05-22T05:59:28;97729.81;;;17.60;48.32
70921;BME280;58572;48.110;19.838;2023-05-22T06:01:56;97728.91;;;17.85;49.77
70921;BME280;58572;48.110;19.838;2023-05-22T06:04:23;97729.44;;;17.78;48.82
70921;BME280;58572;48.110;19.838;2023-05-22T06:06:54;97745.56;;;18.09;48.47
70921;BME280;58572;48.110;19.838;2023-05-22T06:09:21;97733.28;;;17.86;47.84
70921;BME280;58572;48.110;19.838;2023-05-22T06:11:48;97735.22;;;17.85;48.23
70921;BME280;58572;48.110;19.838;2023-05-22T06:14:16;97738.72;;;18.15;52.04
70921;BME280;58572;48.110;19.838;2023-05-22T06:16:43;97736.41;;;18.38;50.07
70921;BME280;58572;48.110;19.838;2023-05-22T06:19:10;97729.78;;;18.51;48.47
70921;BME280;58572;48.110;19.838;2023-05-22T06:21:41;97734.41;;;18.27;50.55
70921;BME280;58572;48.110;19.838;2023-05-22T06:24:14;97738.25;;;17.93;55.16
70921;BME280;58572;48.110;19.838;2023-05-22T06:26:41;97595.59;;;17.41;53.31
70921;BME280;58572;48.110;19.838;2023-05-22T06:29:08;97737.31;;;18.63;50.59
70921;BME280;58572;48.110;19.838;2023-05-22T06:31:36;97735.25;;;18.39;52.09
70921;BME280;58572;48.110;19.838;2023-05-22T06:34:04;97730.78;;;18.68;51.35
70921;BME280;58572;48.110;19.838;2023-05-22T06:36:31;97746.03;;;18.11;54.11
70921;BME280;58572;48.110;19.838;2023-05-22T06:38:59;97736.78;;;18.49;46.86
70921;BME280;58572;48.110;19.838;2023-05-22T06:41:27;97733.66;;;18.38;48.36
70921;BME280;58572;48.110;19.838;2023-05-22T06:43:55;97669.56;;;18.17;49.55
70921;BME280;58572;48.110;19.838;2023-05-22T06:46:23;97743.63;;;18.64;49.46
70921;BME280;58572;48.110;19.838;2023-05-22T06:48:50;97730.97;;;18.84;49.01
70921;BME280;58572;48.110;19.838;2023-05-22T06:51:18;97745.91;;;18.95;48.15
70921;BME280;58572;48.110;19.838;2023-05-22T06:53:45;97735.63;;;19.28;49.39
70921;BME280;58572;48.110;19.838;2023-05-22T06:56:13;97739.00;;;19.58;47.82
70921;BME280;58572;48.110;19.838;2023-05-22T06:58:42;97742.88;;;19.69;47.83
70921;BME280;58572;48.110;19.838;2023-05-22T07:01:09;97744.81;;;19.32;49.53
70921;BME280;58572;48.110;19.838;2023-05-22T07:03:36;97746.09;;;19.35;49.07
70921;BME280;58572;48.110;19.838;2023-05-22T07:06:03;97748.47;;;19.00;49.12
70921;BME280;58572;48.110;19.838;2023-05-22T07:08:32;97684.72;;;18.89;48.03
70921;BME280;58572;48.110;19.838;2023-05-22T07:10:59;97744.50;;;19.95;50.51
70921;BME280;58572;48.110;19.838;2023-05-22T07:13:26;97750.44;;;19.48;47.46
70921;BME280;58572;48.110;19.838;2023-05-22T07:15:58;97650.31;;;18.95;48.46
70921;BME280;58572;48.110;19.838;2023-05-22T07:18:25;97740.00;;;20.30;46.06
70921;BME280;58572;48.110;19.838;2023-05-22T07:20:52;97739.19;;;20.02;46.91
70921;BME280;58572;48.110;19.838;2023-05-22T07:23:19;97739.06;;;20.38;46.42
70921;BME280;58572;48.110;19.838;2023-05-22T07:25:46;97748.09;;;20.23;46.86
70921;BME280;58572;48.110;19.838;2023-05-22T07:28:14;97739.97;;;20.98;45.05
70921;BME280;58572;48.110;19.838;2023-05-22T07:30:41;97742.81;;;20.58;46.24
70921;BME280;58572;48.110;19.838;2023-05-22T07:33:10;97745.50;;;20.98;46.65
70921;BME280;58572;48.110;19.838;2023-05-22T07:35:38;97593.47;;;20.51;45.74
70921;BME280;58572;48.110;19.838;2023-05-22T07:38:05;97738.19;;;21.22;45.49
70921;BME280;58572;48.110;19.838;2023-05-22T07:40:33;97740.22;;;21.72;47.26
70921;BME280;58572;48.110;19.838;2023-05-22T07:43:00;97685.44;;;20.67;46.39
70921;BME280;58572;48.110;19.838;2023-05-22T07:45:27;97732.53;;;21.30;45.66
70921;BME280;58572;48.110;19.838;2023-05-22T07:47:54;97715.66;;;20.76;46.67
70921;BME280;58572;48.110;19.838;2023-05-22T07:50:25;97673.09;;;21.09;46.46
70921;BME280;58572;48.110;19.838;2023-05-22T07:52:54;97592.78;;;20.26;45.25
70921;BME280;58572;48.110;19.838;2023-05-22T07:55:22;97736.84;;;21.79;48.68
70921;BME280;58572;48.110;19.838;2023-05-22T07:57:49;97739.56;;;21.28;45.58
70921;BME280;58572;48.110;19.838;2023-05-22T08:00:18;97734.91;;;22.14;49.24
70921;BME280;58572;48.110;19.838;2023-05-22T08:02:45;97738.03;;;22.13;44.08
70921;BME280;58572;48.110;19.838;2023-05-22T08:05:13;97687.94;;;22.02;45.21
70921;BME280;58572;48.110;19.838;2023-05-22T08:07:41;97733.47;;;22.40;44.11
70921;BME280;58572;48.110;19.838;2023-05-22T08:10:13;97681.59;;;21.66;44.43
70921;BME280;58572;48.110;19.838;2023-05-22T08:12:41;97691.50;;;21.67;42.65
70921;BME280;58572;48.110;19.838;2023-05-22T08:15:08;97732.28;;;22.41;45.91
70921;BME280;58572;48.110;19.838;2023-05-22T08:17:36;97725.50;;;22.96;44.50
70921;BME280;58572;48.110;19.838;2023-05-22T08:20:04;97737.53;;;22.65;43.76
70921;BME280;58572;48.110;19.838;2023-05-22T08:22:31;97731.19;;;22.07;43.27
70921;BME280;58572;48.110;19.838;2023-05-22T08:25:00;97662.97;;;21.63;43.76
70921;BME280;58572;48.110;19.838;2023-05-22T08:27:27;97728.41;;;22.07;43.16
70921;BME280;58572;48.110;19.838;2023-05-22T08:29:55;97747.13;;;23.10;41.55
70921;BME280;58572;48.110;19.838;2023-05-22T08:32:22;97724.03;;;23.74;40.36
70921;BME280;58572;48.110;19.838;2023-05-22T08:34:49;97726.34;;;23.69;42.93
70921;BME280;58572;48.110;19.838;2023-05-22T08:37:16;97732.78;;;22.66;42.51
70921;BME280;58572;48.110;19.838;2023-05-22T08:39:43;97720.91;;;22.65;40.94
70921;BME280;58572;48.110;19.838;2023-05-22T08:42:12;97669.47;;;22.68;41.42
70921;BME280;58572;48.110;19.838;2023-05-22T08:44:39;97720.00;;;23.45;40.73
70921;BME280;58572;48.110;19.838;2023-05-22T08:47:07;97715.28;;;23.23;41.41
70921;BME280;58572;48.110;19.838;2023-05-22T08:49:37;97720.56;;;23.54;40.69
70921;BME280;58572;48.110;19.838;2023-05-22T08:52:11;97711.47;;;24.37;39.52
70921;BME280;58572;48.110;19.838;2023-05-22T08:54:40;97649.75;;;23.64;39.80
70921;BME280;58572;48.110;19.838;2023-05-22T08:57:08;97681.38;;;23.10;38.83
70921;BME280;58572;48.110;19.838;2023-05-22T08:59:38;97707.44;;;23.06;39.99
70921;BME280;58572;48.110;19.838;2023-05-22T09:02:07;97715.34;;;23.76;40.14
70921;BME280;58572;48.110;19.838;2023-05-22T09:04:35;97705.06;;;24.33;41.07
70921;BME280;58572;48.110;19.838;2023-05-22T09:07:03;97707.88;;;23.80;38.07
70921;BME280;58572;48.110;19.838;2023-05-22T09:09:31;97700.22;;;24.00;36.71
70921;BME280;58572;48.110;19.838;2023-05-22T09:12:02;97687.25;;;23.81;38.54
70921;BME280;58572;48.110;19.838;2023-05-22T09:14:38;97707.03;;;24.32;41.99
70921;BME280;58572;48.110;19.838;2023-05-22T09:17:07;97705.75;;;24.60;37.44
70921;BME280;58572;48.110;19.838;2023-05-22T09:19:36;97700.47;;;24.17;36.57
70921;BME280;58572;48.110;19.838;2023-05-22T09:22:04;97687.44;;;24.55;37.05
70921;BME280;58572;48.110;19.838;2023-05-22T09:24:37;97705.41;;;24.01;36.25
70921;BME280;58572;48.110;19.838;2023-05-22T09:27:05;97553.03;;;23.66;36.06
70921;BME280;58572;48.110;19.838;2023-05-22T09:29:48;97702.50;;;24.20;37.12
70921;BME280;58572;48.110;19.838;2023-05-22T09:32:15;97701.00;;;24.60;36.58
70921;BME280;58572;48.110;19.838;2023-05-22T09:34:43;97614.19;;;24.37;35.83
70921;BME280;58572;48.110;19.838;2023-05-22T09:37:11;97707.22;;;23.90;34.55
70921;BME280;58572;48.110;19.838;2023-05-22T09:39:39;97699.53;;;24.06;36.16
70921;BME280;58572;48.110;19.838;2023-05-22T09:42:09;97688.31;;;25.40;35.92
70921;BME280;58572;48.110;19.838;2023-05-22T09:44:38;97640.38;;;24.73;35.16
70921;BME280;58572;48.110;19.838;2023-05-22T09:47:08;97681.09;;;25.32;37.39
70921;BME280;58572;48.110;19.838;2023-05-22T09:49:40;97674.06;;;25.49;35.43
70921;BME280;58572;48.110;19.838;2023-05-22T09:52:08;97690.69;;;25.38;35.54
70921;BME280;58572;48.110;19.838;2023-05-22T09:54:44;97545.91;;;24.36;33.82
70921;BME280;58572;48.110;19.838;2023-05-22T09:57:16;97678.06;;;25.55;35.00
70921;BME280;58572;48.110;19.838;2023-05-22T09:59:48;97697.47;;;25.44;35.95
70921;BME280;58572;48.110;19.838;2023-05-22T10:02:21;97696.53;;;25.26;34.49
70921;BME280;58572;48.110;19.838;2023-05-22T10:04:49;97685.38;;;25.74;33.56
70921;BME280;58572;48.110;19.838;2023-05-22T10:07:19;97682.28;;;25.31;34.79
70921;BME280;58572;48.110;19.838;2023-05-22T10:09:50;97678.16;;;26.31;33.05
70921;BME280;58572;48.110;19.838;2023-05-22T10:12:20;97681.69;;;26.21;35.09
70921;BME280;58572;48.110;19.838;2023-05-22T10:14:49;97690.84;;;25.60;39.24
70921;BME280;58572;48.110;19.838;2023-05-22T10:17:17;97681.16;;;24.62;35.96
70921;BME280;58572;48.110;19.838;2023-05-22T10:19:47;97630.44;;;25.09;36.29
70921;BME280;58572;48.110;19.838;2023-05-22T10:22:14;97679.09;;;25.33;35.52
70921;BME280;58572;48.110;19.838;2023-05-22T10:24:47;97617.81;;;25.84;33.84
70921;BME280;58572;48.110;19.838;2023-05-22T10:27:14;97638.56;;;25.97;34.27
70921;BME280;58572;48.110;19.838;2023-05-22T10:29:45;97638.75;;;26.33;35.99
70921;BME280;58572;48.110;19.838;2023-05-22T10:32:20;97664.06;;;27.08;33.50
70921;BME280;58572;48.110;19.838;2023-05-22T10:34:59;97662.75;;;26.62;33.92
70921;BME280;58572;48.110;19.838;2023-05-22T10:37:40;97659.97;;;26.77;32.74
70921;BME280;58572;48.110;19.838;2023-05-22T10:40:10;97609.75;;;24.69;33.68
70921;BME280;58572;48.110;19.838;2023-05-22T10:42:39;97669.78;;;25.11;33.16
70921;BME280;58572;48.110;19.838;2023-05-22T10:45:07;97657.28;;;27.37;32.41
70921;BME280;58572;48.110;19.838;2023-05-22T10:47:34;97587.09;;;27.28;32.15
70921;BME280;58572;48.110;19.838;2023-05-22T10:50:06;97649.16;;;26.50;30.38
70921;BME280;58572;48.110;19.838;2023-05-22T10:52:34;97595.41;;;26.53;32.80
70921;BME280;58572;48.110;19.838;2023-05-22T10:55:05;97577.25;;;25.90;31.82
70921;BME280;58572;48.110;19.838;2023-05-22T10:57:32;97650.00;;;26.68;33.27
70921;BME280;58572;48.110;19.838;2023-05-22T11:00:06;97652.50;;;27.06;31.89
70921;BME280;58572;48.110;19.838;2023-05-22T11:02:38;97648.47;;;26.99;32.70
70921;BME280;58572;48.110;19.838;2023-05-22T11:05:35;97641.25;;;26.70;32.01
70921;BME280;58572;48.110;19.838;2023-05-22T11:08:09;97644.81;;;27.95;33.09
70921;BME280;58572;48.110;19.838;2023-05-22T11:10:55;97641.31;;;27.52;31.05
70921;BME280;58572;48.110;19.838;2023-05-22T11:13:26;97551.19;;;26.48;32.35
70921;BME280;58572;48.110;19.838;2023-05-22T11:15:54;97645.31;;;27.37;33.11
70921;BME280;58572;48.110;19.838;2023-05-22T11:18:23;97588.16;;;25.48;33.44
70921;BME280;58572;48.110;19.838;2023-05-22T11:20:58;97627.47;;;26.04;35.98
70921;BME280;58572;48.110;19.838;2023-05-22T11:23:26;97550.47;;;24.99;33.79
70921;BME280;58572;48.110;19.838;2023-05-22T11:25:53;97592.31;;;25.78;33.49
70921;BME280;58572;48.110;19.838;2023-05-22T11:28:21;97632.44;;;26.47;32.61
70921;BME280;58572;48.110;19.838;2023-05-22T11:30:49;97608.59;;;27.49;38.43
70921;BME280;58572;48.110;19.838;2023-05-22T11:33:18;97531.53;;;27.76;31.24
70921;BME280;58572;48.110;19.838;2023-05-22T11:35:46;97610.84;;;28.14;31.39
70921;BME280;58572;48.110;19.838;2023-05-22T11:38:15;97613.34;;;26.73;39.09
70921;BME280;58572;48.110;19.838;2023-05-22T11:40:44;97612.31;;;28.44;33.75
70921;BME280;58572;48.110;19.838;2023-05-22T11:43:10;97606.75;;;28.37;32.92
70921;BME280;58572;48.110;19.838;2023-05-22T11:45:38;97610.22;;;27.43;34.30
70921;BME280;58572;48.110;19.838;2023-05-22T11:48:07;97572.56;;;27.93;34.67
70921;BME280;58572;48.110;19.838;2023-05-22T11:50:36;97606.84;;;28.12;33.35
70921;BME280;58572;48.110;19.838;2023-05-22T11:53:03;97615.69;;;26.47;36.88
70921;BME280;58572;48.110;19.838;2023-05-22T11:55:33;97610.22;;;27.00;37.18
70921;BME280;58572;48.110;19.838;2023-05-22T11:58:00;97610.81;;;26.15;32.57
70921;BME280;58572;48.110;19.838;2023-05-22T12:00:27;97605.19;;;26.04;33.72
70921;BME280;58572;48.110;19.838;2023-05-22T12:02:56;97606.81;;;28.26;32.97
70921;BME280;58572;48.110;19.838;2023-05-22T12:05:24;97607.31;;;27.89;32.48
70921;BME280;58572;48.110;19.838;2023-05-22T12:07:51;97603.00;;;27.70;33.95
70921;BME280;58572;48.110;19.838;2023-05-22T12:10:18;97600.97;;;27.81;34.02
70921;BME280;58572;48.110;19.838;2023-05-22T12:12:47;97593.97;;;28.98;33.62
70921;BME280;58572;48.110;19.838;2023-05-22T12:15:17;97603.72;;;27.92;34.78
70921;BME280;58572;48.110;19.838;2023-05-22T12:17:45;97597.28;;;28.09;36.41
70921;BME280;58572;48.110;19.838;2023-05-22T12:20:12;97599.50;;;28.46;33.99
70921;BME280;58572;48.110;19.838;2023-05-22T12:22:40;97546.94;;;28.13;33.03
70921;BME280;58572;48.110;19.838;2023-05-22T12:25:13;97544.63;;;29.18;32.85
70921;BME280;58572;48.110;19.838;2023-05-22T12:27:42;97595.50;;;28.47;32.46
70921;BME280;58572;48.110;19.838;2023-05-22T12:30:13;97591.03;;;29.16;33.29
70921;BME280;58572;48.110;19.838;2023-05-22T12:32:46;97592.53;;;27.95;34.02
70921;BME280;58572;48.110;19.838;2023-05-22T12:35:14;97579.31;;;29.69;31.73
70921;BME280;58572;48.110;19.838;2023-05-22T12:37:47;97576.66;;;29.10;31.83
70921;BME280;58572;48.110;19.838;2023-05-22T12:40:15;97580.66;;;26.53;32.17
70921;BME280;58572;48.110;19.838;2023-05-22T12:42:42;97581.13;;;27.26;32.44
70921;BME280;58572;48.110;19.838;2023-05-22T12:45:12;97573.16;;;28.99;34.32
70921;BME280;58572;48.110;19.838;2023-05-22T12:47:39;97577.50;;;27.32;30.60
70921;BME280;58572;48.110;19.838;2023-05-22T12:50:07;97577.84;;;27.59;34.32
70921;BME280;58572;48.110;19.838;2023-05-22T12:52:34;97571.88;;;28.55;32.54
70921;BME280;58572;48.110;19.838;2023-05-22T12:55:01;97574.78;;;28.38;32.18
70921;BME280;58572;48.110;19.838;2023-05-22T12:57:29;97575.06;;;28.57;32.23
70921;BME280;58572;48.110;19.838;2023-05-22T12:59:56;97573.84;;;28.58;31.82
70921;BME280;58572;48.110;19.838;2023-05-22T13:02:25;97555.06;;;28.59;33.30